createdAt,value
2022-11-28T00:02:48.915Z,92
2022-11-28T00:12:49.150Z,93
2022-11-28T00:22:49.369Z,94
2022-11-28T00:32:50.119Z,94
2022-11-28T00:42:51.003Z,95
2022-11-28T00:52:51.789Z,95
2022-11-28T01:02:52.618Z,96
2022-11-28T01:12:53.006Z,96
2022-11-28T01:22:53.194Z,96
2022-11-28T01:32:53.372Z,97
2022-11-28T01:42:54.201Z,97
2022-11-28T01:52:54.802Z,97
2022-11-28T02:02:55.610Z,98
2022-11-28T02:12:55.780Z,98
2022-11-28T02:22:55.907Z,98
2022-11-28T02:42:57.353Z,99
2022-11-28T02:52:57.979Z,99
2022-11-28T03:02:58.818Z,99
2022-11-28T03:12:58.963Z,100
2022-11-28T03:22:59.509Z,100
2022-11-28T03:43:01.462Z,100
2022-11-28T03:53:02.491Z,100
2022-11-28T04:03:03.574Z,100
2022-11-28T04:13:04.406Z,100
2022-11-28T04:23:04.812Z,100
2022-11-28T04:33:05.782Z,100
2022-11-28T04:43:06.143Z,100
2022-11-28T04:53:07.118Z,100
2022-11-28T05:03:07.376Z,100
2022-11-28T05:13:07.557Z,100
2022-11-28T05:23:07.729Z,100
2022-11-28T05:33:08.032Z,100
2022-11-28T05:43:09.041Z,100
2022-11-28T05:53:09.931Z,100
2022-11-28T06:03:10.073Z,100
2022-11-28T06:13:10.302Z,100
2022-11-28T06:23:10.883Z,100
2022-11-28T06:33:11.553Z,100
2022-11-28T06:43:12.381Z,100
2022-11-28T06:53:12.837Z,100
2022-11-28T07:03:13.809Z,100
2022-11-28T07:13:14.731Z,100
2022-11-28T07:23:15.376Z,100
2022-11-28T07:33:16.137Z,100
2022-11-28T07:43:16.210Z,100
2022-11-28T07:53:17.016Z,100
2022-11-28T08:03:17.617Z,100
2022-11-28T08:13:18.068Z,100
2022-11-28T08:23:18.328Z,100
2022-11-28T08:33:19.216Z,100
2022-11-28T08:43:20.322Z,100
2022-11-28T08:53:21.113Z,100
2022-11-28T09:03:21.856Z,99
2022-11-28T09:13:22.047Z,99
2022-11-28T09:23:23.056Z,99
2022-11-28T09:33:23.836Z,99
2022-11-28T09:33:45.777Z,99
2022-11-28T09:43:30.108Z,99
2022-11-28T09:53:30.721Z,99
2022-11-28T10:03:31.314Z,99
2022-11-28T10:13:41.300Z,98
2022-11-28T10:23:32.061Z,98
2022-11-28T10:33:32.638Z,98
2022-11-28T10:43:32.840Z,98
2022-11-28T10:53:33.015Z,99
2022-11-28T11:03:33.657Z,99
2022-11-28T11:13:34.287Z,99
2022-11-28T11:23:38.191Z,99
2022-11-28T11:33:35.649Z,99
2022-11-28T11:43:36.153Z,99
2022-11-28T11:53:36.519Z,99
2022-11-28T12:03:36.815Z,99
2022-11-28T12:13:37.763Z,99
2022-11-28T12:23:38.521Z,99
2022-11-28T12:33:39.383Z,99
2022-11-28T12:43:40.500Z,100
2022-11-28T13:03:41.258Z,100
2022-11-28T13:13:42.088Z,100
2022-11-28T13:23:43.164Z,100
2022-11-28T13:33:43.511Z,100
2022-11-28T13:43:44.060Z,100
2022-11-28T13:53:44.255Z,100
2022-11-28T14:03:45.143Z,100
2022-11-28T14:13:45.414Z,100
2022-11-28T14:23:45.982Z,100
2022-11-28T14:33:46.957Z,100
2022-11-28T14:43:47.770Z,100
2022-11-28T15:03:49.036Z,100
2022-11-28T15:13:50.033Z,100
2022-11-28T15:23:50.795Z,100
2022-11-28T15:33:51.113Z,100
2022-11-28T15:43:51.305Z,100
2022-11-28T15:53:51.697Z,100
2022-11-28T16:03:52.710Z,100
2022-11-28T16:13:53.030Z,100
2022-11-28T16:23:54.005Z,100
2022-11-28T16:33:54.529Z,100
2022-11-28T16:43:55.200Z,100
2022-11-28T16:53:55.559Z,100
2022-11-28T17:03:56.249Z,100
2022-11-28T17:13:57.755Z,100
2022-11-28T17:23:57.220Z,100
2022-11-28T17:33:57.475Z,100
2022-11-28T17:43:57.975Z,100
2022-11-28T17:53:58.210Z,100
2022-11-28T18:03:58.729Z,100
2022-11-28T18:13:59.802Z,100
2022-11-28T18:24:00.764Z,100
2022-11-28T18:34:02.160Z,100
2022-11-28T18:44:01.522Z,100
2022-11-28T18:54:01.987Z,100
2022-11-28T19:04:02.146Z,100
2022-11-28T19:14:03.057Z,100
2022-11-28T19:24:04.017Z,100
2022-11-28T19:34:04.167Z,100
2022-11-28T19:44:04.391Z,100
2022-11-28T19:54:04.925Z,100
2022-11-28T20:04:05.364Z,100
2022-11-28T20:14:06.122Z,100
2022-11-28T20:24:06.294Z,100
2022-11-28T20:34:06.584Z,100
2022-11-28T20:44:07.271Z,100
2022-11-28T20:54:07.602Z,100
2022-11-28T21:04:08.463Z,100
2022-11-28T21:24:08.892Z,100
2022-11-28T21:34:09.547Z,100
2022-11-28T21:54:11.270Z,100
2022-11-28T22:04:11.488Z,100
2022-11-28T22:14:12.294Z,100
2022-11-28T22:24:13.304Z,100
2022-11-28T22:44:15.012Z,100
2022-11-28T22:54:15.213Z,100
2022-11-28T23:04:16.232Z,100
2022-11-28T23:14:16.653Z,100
2022-11-28T23:24:16.917Z,100
2022-11-28T23:34:17.239Z,100
